createdAt,value
2022-11-12T00:01:09.259Z,3.50
2022-11-12T00:03:36.460Z,3.60
2022-11-12T00:06:03.753Z,3.70
2022-11-12T00:08:30.854Z,3.70
2022-11-12T00:11:00.331Z,3.70
2022-11-12T00:13:27.405Z,3.80
2022-11-12T00:15:54.437Z,3.90
2022-11-12T00:18:21.626Z,3.90
2022-11-12T00:20:48.737Z,4.00
2022-11-12T00:23:15.799Z,4.00
2022-11-12T00:25:42.807Z,4.10
2022-11-12T00:28:11.337Z,4.00
2022-11-12T00:30:40.188Z,3.90
2022-11-12T00:33:07.727Z,4.00
2022-11-12T00:35:35.659Z,4.00
2022-11-12T00:38:03.132Z,4.10
2022-11-12T00:40:30.411Z,4.10
2022-11-12T00:42:57.818Z,4.20
2022-11-12T00:45:24.908Z,4.20
2022-11-12T00:47:56.801Z,4.20
2022-11-12T00:50:24.630Z,4.20
2022-11-12T00:52:54.819Z,4.20
2022-11-12T00:55:22.001Z,4.20
2022-11-12T00:57:49.174Z,4.20
2022-11-12T01:00:18.872Z,4.20
2022-11-12T01:02:50.756Z,4.30
2022-11-12T01:05:19.624Z,4.30
2022-11-12T01:07:50.498Z,4.30
2022-11-12T01:10:21.825Z,4.30
2022-11-12T01:12:48.826Z,4.30
2022-11-12T01:15:15.854Z,4.30
2022-11-12T01:17:44.251Z,4.30
2022-11-12T01:20:11.537Z,4.30
2022-11-12T01:22:38.580Z,4.30
2022-11-12T01:25:06.268Z,4.30
2022-11-12T01:27:34.377Z,4.20
2022-11-12T01:30:01.564Z,4.20
2022-11-12T01:32:28.685Z,4.20
2022-11-12T01:34:55.693Z,4.20
2022-11-12T01:37:22.732Z,4.10
2022-11-12T01:39:49.772Z,4.00
2022-11-12T01:42:16.801Z,4.00
2022-11-12T01:44:46.469Z,4.00
2022-11-12T01:47:20.981Z,4.00
2022-11-12T01:50:13.126Z,4.00
2022-11-12T01:53:09.217Z,4.00
2022-11-12T01:55:38.176Z,4.10
2022-11-12T01:58:13.575Z,4.10
2022-11-12T02:00:44.391Z,4.20
2022-11-12T02:03:19.594Z,4.20
2022-11-12T02:05:51.804Z,4.20
2022-11-12T02:08:22.133Z,4.20
2022-11-12T02:10:50.629Z,4.20
2022-11-12T02:13:36.862Z,4.10
2022-11-12T02:16:05.901Z,4.10
2022-11-12T02:18:33.089Z,4.10
2022-11-12T02:21:06.343Z,4.10
2022-11-12T02:23:33.409Z,4.00
2022-11-12T02:26:01.241Z,4.00
2022-11-12T02:28:31.373Z,3.90
2022-11-12T02:30:58.370Z,3.90
2022-11-12T02:33:25.418Z,3.90
2022-11-12T02:35:52.441Z,3.90
2022-11-12T02:38:19.448Z,4.00
2022-11-12T02:40:46.431Z,4.10
2022-11-12T02:43:13.449Z,4.20
2022-11-12T02:45:40.480Z,4.30
2022-11-12T02:48:07.465Z,4.30
2022-11-12T02:50:34.539Z,4.40
2022-11-12T02:53:01.558Z,4.40
2022-11-12T02:55:28.630Z,4.50
2022-11-12T02:57:58.846Z,4.30
2022-11-12T03:00:26.000Z,4.30
2022-11-12T03:02:59.403Z,4.30
2022-11-12T03:05:32.740Z,4.30
2022-11-12T03:08:03.316Z,4.30
2022-11-12T03:10:30.801Z,4.30
2022-11-12T03:13:00.356Z,4.30
2022-11-12T03:15:29.169Z,4.30
2022-11-12T03:17:58.916Z,4.40
2022-11-12T03:20:26.966Z,4.30
2022-11-12T03:23:02.148Z,4.40
2022-11-12T03:25:30.323Z,4.40
2022-11-12T03:28:03.481Z,4.40
2022-11-12T03:30:33.981Z,4.40
2022-11-12T03:33:01.249Z,4.40
2022-11-12T03:35:28.686Z,4.40
2022-11-12T03:37:56.171Z,4.50
2022-11-12T03:40:23.283Z,4.50
2022-11-12T03:42:51.884Z,4.30
2022-11-12T03:45:21.661Z,4.10
2022-11-12T03:47:54.679Z,4.10
2022-11-12T03:50:25.628Z,4.00
2022-11-12T03:52:57.149Z,4.00
2022-11-12T03:55:27.037Z,3.90
2022-11-12T03:57:56.456Z,3.90
2022-11-12T04:00:26.065Z,3.90
2022-11-12T04:02:53.281Z,3.90
2022-11-12T04:05:39.314Z,4.00
2022-11-12T04:08:35.336Z,3.90
2022-11-12T04:11:07.814Z,3.80
2022-11-12T04:13:38.429Z,3.80
2022-11-12T04:16:32.329Z,3.90
2022-11-12T04:19:19.777Z,3.90
2022-11-12T04:21:57.026Z,3.70
2022-11-12T04:24:54.286Z,3.70
2022-11-12T04:27:25.742Z,3.80
2022-11-12T04:30:12.173Z,3.80
2022-11-12T04:32:46.015Z,3.60
2022-11-12T04:35:13.416Z,3.70
2022-11-12T04:37:46.377Z,3.60
2022-11-12T04:40:38.856Z,3.70
2022-11-12T04:43:27.416Z,3.70
2022-11-12T04:45:55.118Z,3.70
2022-11-12T04:48:24.299Z,3.80
2022-11-12T04:51:27.972Z,3.80
2022-11-12T04:53:55.122Z,3.80
2022-11-12T04:56:23.502Z,3.90
2022-11-12T04:58:50.589Z,3.90
2022-11-12T05:01:17.688Z,3.90
2022-11-12T05:03:44.736Z,3.80
2022-11-12T05:06:30.228Z,3.80
2022-11-12T05:08:57.271Z,3.80
2022-11-12T05:11:24.310Z,3.80
2022-11-12T05:13:51.336Z,3.80
2022-11-12T05:16:18.343Z,3.70
2022-11-12T05:18:45.321Z,3.70
2022-11-12T05:21:30.947Z,3.60
2022-11-12T05:23:58.058Z,3.50
2022-11-12T05:26:25.114Z,3.50
2022-11-12T05:28:52.164Z,3.50
2022-11-12T05:31:20.644Z,3.50
2022-11-12T05:33:47.618Z,3.30
2022-11-12T05:36:14.650Z,3.30
2022-11-12T05:38:42.671Z,3.40
2022-11-12T05:41:12.966Z,3.30
2022-11-12T05:43:41.971Z,3.20
2022-11-12T05:46:09.025Z,3.20
2022-11-12T05:48:36.134Z,3.30
2022-11-12T05:51:12.347Z,3.30
2022-11-12T05:53:41.739Z,3.40
2022-11-12T05:56:10.954Z,3.40
2022-11-12T05:58:38.226Z,3.50
2022-11-12T06:01:05.337Z,3.50
2022-11-12T06:03:32.582Z,3.50
2022-11-12T06:05:59.813Z,3.50
2022-11-12T06:08:27.136Z,3.40
2022-11-12T06:10:55.701Z,3.40
2022-11-12T06:13:25.388Z,3.40
2022-11-12T06:15:54.359Z,3.30
2022-11-12T06:18:22.430Z,3.20
2022-11-12T06:21:10.351Z,3.10
2022-11-12T06:23:37.454Z,3.00
2022-11-12T06:26:04.885Z,3.00
2022-11-12T06:28:31.946Z,3.00
2022-11-12T06:30:59.081Z,3.00
2022-11-12T06:33:26.246Z,3.00
2022-11-12T06:36:03.239Z,3.00
2022-11-12T06:38:36.511Z,3.10
2022-11-12T06:41:04.951Z,3.20
2022-11-12T06:43:34.011Z,3.10
2022-11-12T06:46:15.857Z,3.00
2022-11-12T06:48:43.007Z,3.00
2022-11-12T06:51:17.581Z,2.90
2022-11-12T06:53:45.101Z,3.00
2022-11-12T06:56:13.332Z,3.00
2022-11-12T06:58:40.813Z,3.10
2022-11-12T07:01:14.656Z,3.20
2022-11-12T07:03:43.181Z,3.30
2022-11-12T07:06:19.199Z,3.40
2022-11-12T07:08:50.303Z,3.30
2022-11-12T07:11:19.388Z,3.20
2022-11-12T07:13:47.251Z,3.20
2022-11-12T07:16:19.564Z,3.20
2022-11-12T07:18:48.231Z,3.10
2022-11-12T07:21:19.554Z,3.10
2022-11-12T07:23:48.713Z,3.10
2022-11-12T07:26:27.597Z,3.20
2022-11-12T07:28:58.295Z,3.30
2022-11-12T07:31:25.988Z,3.40
2022-11-12T07:33:53.040Z,3.40
2022-11-12T07:36:21.653Z,3.40
2022-11-12T07:38:53.239Z,3.50
2022-11-12T07:41:25.215Z,3.50
2022-11-12T07:43:54.070Z,3.50
2022-11-12T07:46:26.657Z,3.50
2022-11-12T07:48:54.907Z,3.60
2022-11-12T07:51:30.390Z,3.60
2022-11-12T07:54:00.044Z,3.50
2022-11-12T07:56:28.825Z,3.60
2022-11-12T07:58:55.883Z,3.60
2022-11-12T08:01:33.435Z,3.70
2022-11-12T08:04:02.869Z,3.80
2022-11-12T08:06:31.994Z,3.70
2022-11-12T08:09:01.827Z,3.60
2022-11-12T08:11:29.188Z,3.60
2022-11-12T08:13:56.349Z,3.50
2022-11-12T08:16:24.244Z,3.60
2022-11-12T08:18:51.740Z,3.60
2022-11-12T08:21:19.798Z,3.60
2022-11-12T08:23:49.386Z,3.60
2022-11-12T08:26:18.873Z,3.50
2022-11-12T08:28:46.955Z,3.50
2022-11-12T08:31:18.431Z,3.50
2022-11-12T08:33:45.845Z,3.60
2022-11-12T08:36:16.424Z,3.70
2022-11-12T08:38:43.909Z,3.90
2022-11-12T08:41:13.442Z,4.00
2022-11-12T08:43:42.185Z,4.10
2022-11-12T08:46:09.926Z,4.20
2022-11-12T08:48:37.593Z,4.30
2022-11-12T08:51:05.962Z,4.40
2022-11-12T08:53:33.404Z,4.50
2022-11-12T08:56:00.723Z,4.50
2022-11-12T08:58:28.720Z,4.60
2022-11-12T09:00:56.797Z,4.70
2022-11-12T09:03:26.126Z,4.70
2022-11-12T09:05:54.321Z,4.80
2022-11-12T09:08:25.086Z,4.80
2022-11-12T09:10:52.970Z,4.90
2022-11-12T09:13:20.557Z,4.90
2022-11-12T09:15:47.777Z,4.90
2022-11-12T09:18:18.836Z,4.90
2022-11-12T09:20:46.802Z,5.00
2022-11-12T09:23:17.982Z,5.00
2022-11-12T09:25:45.405Z,5.10
2022-11-12T09:28:18.365Z,5.20
2022-11-12T09:30:48.723Z,5.40
2022-11-12T09:33:19.539Z,5.50
2022-11-12T09:35:47.444Z,5.60
2022-11-12T09:38:15.427Z,5.70
2022-11-12T09:40:53.822Z,5.80
2022-11-12T09:43:31.970Z,5.90
2022-11-12T09:46:32.837Z,5.90
2022-11-12T09:49:16.908Z,6.00
2022-11-12T09:52:10.862Z,6.00
2022-11-12T09:54:37.966Z,6.00
2022-11-12T09:57:09.338Z,6.10
2022-11-12T09:59:40.178Z,6.10
2022-11-12T10:02:37.886Z,6.20
2022-11-12T10:05:58.621Z,6.20
2022-11-12T10:09:02.484Z,6.30
2022-11-12T10:11:57.691Z,6.30
2022-11-12T10:15:32.743Z,6.20
2022-11-12T10:18:33.716Z,6.40
2022-11-12T10:21:23.795Z,6.50
2022-11-12T10:23:53.511Z,6.60
2022-11-12T10:26:24.971Z,6.70
2022-11-12T10:29:16.097Z,6.80
2022-11-12T10:31:43.166Z,6.70
2022-11-12T10:34:19.249Z,6.90
2022-11-12T10:36:55.346Z,7.00
2022-11-12T10:39:44.141Z,7.00
2022-11-12T10:42:20.729Z,7.10
2022-11-12T10:44:49.114Z,7.10
2022-11-12T10:47:44.561Z,7.20
2022-11-12T10:50:21.942Z,7.20
2022-11-12T10:52:57.594Z,7.20
2022-11-12T10:55:34.486Z,7.30
2022-11-12T10:58:16.921Z,7.30
2022-11-12T11:00:58.672Z,7.40
2022-11-12T11:03:46.109Z,7.40
2022-11-12T11:06:16.361Z,7.40
2022-11-12T11:08:52.973Z,7.30
2022-11-12T11:11:29.595Z,7.30
2022-11-12T11:14:22.658Z,7.40
2022-11-12T11:16:56.979Z,7.50
2022-11-12T11:19:36.403Z,7.60
2022-11-12T11:22:27.815Z,7.70
2022-11-12T11:25:23.013Z,7.70
2022-11-12T11:28:42.258Z,7.70
2022-11-12T11:31:37.881Z,7.80
2022-11-12T11:34:24.078Z,7.80
2022-11-12T11:37:26.010Z,7.90
2022-11-12T11:40:14.562Z,7.80
2022-11-12T11:43:27.913Z,7.90
2022-11-12T11:46:17.149Z,8.00
2022-11-12T11:49:24.845Z,8.00
2022-11-12T11:52:00.389Z,8.10
2022-11-12T11:55:04.829Z,8.20
2022-11-12T11:58:03.932Z,8.20
2022-11-12T12:01:26.182Z,8.30
2022-11-12T12:04:30.546Z,8.30
2022-11-12T12:07:37.882Z,8.30
2022-11-12T12:11:08.026Z,8.20
2022-11-12T12:13:54.006Z,8.30
2022-11-12T12:16:39.127Z,8.30
2022-11-12T12:20:05.345Z,8.30
2022-11-12T12:22:50.633Z,8.30
2022-11-12T12:25:27.861Z,8.20
2022-11-12T12:28:06.555Z,8.20
2022-11-12T12:30:40.870Z,8.10
2022-11-12T12:33:32.918Z,8.10
2022-11-12T12:36:09.922Z,8.10
2022-11-12T12:38:48.920Z,8.10
2022-11-12T12:41:28.452Z,8.20
2022-11-12T12:44:09.775Z,8.30
2022-11-12T12:46:50.367Z,8.30
2022-11-12T12:49:30.524Z,8.30
2022-11-12T12:51:59.543Z,8.40
2022-11-12T12:54:35.596Z,8.40
2022-11-12T12:57:25.964Z,8.40
2022-11-12T13:00:37.278Z,8.40
2022-11-12T13:03:04.819Z,8.30
2022-11-12T13:05:35.866Z,8.30
2022-11-12T13:08:19.084Z,8.40
2022-11-12T13:10:49.000Z,8.40
2022-11-12T13:13:18.794Z,8.40
2022-11-12T13:15:54.928Z,8.40
2022-11-12T13:18:40.677Z,8.40
2022-11-12T13:21:20.608Z,8.40
2022-11-12T13:24:09.239Z,8.50
2022-11-12T13:26:53.118Z,8.50
2022-11-12T13:29:29.426Z,8.50
2022-11-12T13:32:29.472Z,8.50
2022-11-12T13:35:23.462Z,8.50
2022-11-12T13:38:12.216Z,8.50
2022-11-12T13:41:15.735Z,8.40
2022-11-12T13:43:44.830Z,8.30
2022-11-12T13:46:29.549Z,8.30
2022-11-12T13:49:09.334Z,8.30
2022-11-12T13:51:47.830Z,8.30
2022-11-12T13:54:41.177Z,8.30
2022-11-12T13:57:24.079Z,8.30
2022-11-12T14:00:21.877Z,8.30
2022-11-12T14:03:05.320Z,8.30
2022-11-12T14:05:34.852Z,8.20
2022-11-12T14:08:20.587Z,8.10
2022-11-12T14:11:09.384Z,8.00
2022-11-12T14:14:36.337Z,8.00
2022-11-12T14:17:11.786Z,8.00
2022-11-12T14:20:14.177Z,7.90
2022-11-12T14:22:43.980Z,8.00
2022-11-12T14:25:18.773Z,7.90
2022-11-12T14:27:48.329Z,7.90
2022-11-12T14:30:29.676Z,7.80
2022-11-12T14:33:10.016Z,7.70
2022-11-12T14:35:41.102Z,7.80
2022-11-12T14:38:33.396Z,7.70
2022-11-12T14:41:09.192Z,7.60
2022-11-12T14:43:43.810Z,7.60
2022-11-12T14:46:25.152Z,7.60
2022-11-12T14:49:01.946Z,7.50
2022-11-12T14:51:32.710Z,7.60
2022-11-12T14:54:06.212Z,7.50
2022-11-12T14:56:38.386Z,7.50
2022-11-12T14:59:05.962Z,7.50
2022-11-12T15:04:26.672Z,7.40
2022-11-12T15:06:58.564Z,7.40
2022-11-12T15:09:35.973Z,7.40
2022-11-12T15:12:10.117Z,7.40
2022-11-12T15:14:37.572Z,7.30
2022-11-12T15:17:06.084Z,7.40
2022-11-12T15:19:33.547Z,7.30
2022-11-12T15:22:03.397Z,7.30
2022-11-12T15:24:36.405Z,7.30
2022-11-12T15:27:40.251Z,7.30
2022-11-12T15:30:25.844Z,7.20
2022-11-12T15:33:16.587Z,7.20
2022-11-12T15:35:45.299Z,7.10
2022-11-12T15:38:25.003Z,7.20
2022-11-12T15:40:57.881Z,7.10
2022-11-12T15:43:33.024Z,7.10
2022-11-12T15:46:00.305Z,7.10
2022-11-12T15:48:27.550Z,7.00
2022-11-12T15:50:55.348Z,7.00
2022-11-12T15:53:22.451Z,7.00
2022-11-12T15:55:51.889Z,7.00
2022-11-12T15:58:33.151Z,6.80
2022-11-12T16:01:00.343Z,6.90
2022-11-12T16:03:27.954Z,6.90
2022-11-12T16:05:55.193Z,6.80
2022-11-12T16:08:22.247Z,6.90
2022-11-12T16:10:51.461Z,6.80
2022-11-12T16:13:33.408Z,6.80
2022-11-12T16:16:05.360Z,6.80
2022-11-12T16:18:32.349Z,6.80
2022-11-12T16:20:59.390Z,6.80
2022-11-12T16:23:26.637Z,6.80
2022-11-12T16:25:54.322Z,6.80
2022-11-12T16:28:21.343Z,6.70
2022-11-12T16:30:50.945Z,6.70
2022-11-12T16:33:17.945Z,6.70
2022-11-12T16:35:45.108Z,6.70
2022-11-12T16:38:17.596Z,6.70
2022-11-12T16:40:45.573Z,6.70
2022-11-12T16:43:12.739Z,6.70
2022-11-12T16:45:42.718Z,6.70
2022-11-12T16:48:27.893Z,6.70
2022-11-12T16:50:54.900Z,6.70
2022-11-12T16:53:22.889Z,6.70
2022-11-12T16:55:50.540Z,6.70
2022-11-12T16:58:17.528Z,6.80
2022-11-12T17:00:46.744Z,6.80
2022-11-12T17:03:14.238Z,6.80
2022-11-12T17:05:41.266Z,6.80
2022-11-12T17:08:10.761Z,6.80
2022-11-12T17:10:37.941Z,6.80
2022-11-12T17:13:04.929Z,6.80
2022-11-12T17:15:31.900Z,6.70
2022-11-12T17:17:58.934Z,6.70
2022-11-12T17:20:25.940Z,6.70
2022-11-12T17:22:52.926Z,6.70
2022-11-12T17:25:19.988Z,6.70
2022-11-12T17:27:46.963Z,6.80
2022-11-12T17:30:14.245Z,6.80
2022-11-12T17:32:41.500Z,6.80
2022-11-12T17:35:08.615Z,6.80
2022-11-12T17:37:35.605Z,6.80
2022-11-12T17:40:03.622Z,6.80
2022-11-12T17:42:30.633Z,6.80
2022-11-12T17:44:57.622Z,6.80
2022-11-12T17:47:24.657Z,6.80
2022-11-12T17:49:51.642Z,6.80
2022-11-12T17:52:18.678Z,6.80
2022-11-12T17:54:45.715Z,6.80
2022-11-12T17:57:12.718Z,6.80
2022-11-12T17:59:39.728Z,6.80
2022-11-12T18:02:07.129Z,6.80
2022-11-12T18:04:34.114Z,6.80
2022-11-12T18:07:01.183Z,6.80
2022-11-12T18:09:28.279Z,6.80
2022-11-12T18:11:56.681Z,6.80
2022-11-12T18:14:26.073Z,6.80
2022-11-12T18:16:53.506Z,6.80
2022-11-12T18:19:20.576Z,6.80
2022-11-12T18:21:47.677Z,6.80
2022-11-12T18:24:16.527Z,6.80
2022-11-12T18:26:44.444Z,6.90
2022-11-12T18:29:12.805Z,6.90
2022-11-12T18:31:40.746Z,6.90
2022-11-12T18:34:14.280Z,6.90
2022-11-12T18:36:41.433Z,6.90
2022-11-12T18:39:08.569Z,6.90
2022-11-12T18:41:35.635Z,6.90
2022-11-12T18:44:02.998Z,6.90
2022-11-12T18:46:30.005Z,6.90
2022-11-12T18:48:57.098Z,7.00
2022-11-12T18:51:25.206Z,7.00
2022-11-12T18:53:52.236Z,7.00
2022-11-12T18:56:22.461Z,7.00
2022-11-12T18:58:49.986Z,7.00
2022-11-12T19:01:21.201Z,7.00
2022-11-12T19:03:52.787Z,7.00
2022-11-12T19:06:20.985Z,7.00
2022-11-12T19:08:48.533Z,7.00
2022-11-12T19:11:18.767Z,7.00
2022-11-12T19:13:46.022Z,7.00
2022-11-12T19:16:17.272Z,6.90
2022-11-12T19:18:45.307Z,6.70
2022-11-12T19:21:16.773Z,6.60
2022-11-12T19:23:47.843Z,6.50
2022-11-12T19:26:18.477Z,6.50
2022-11-12T19:28:45.986Z,6.50
2022-11-12T19:31:25.316Z,6.40
2022-11-12T19:33:52.381Z,6.40
2022-11-12T19:36:23.528Z,6.40
2022-11-12T19:38:59.158Z,6.50
2022-11-12T19:41:26.329Z,6.60
2022-11-12T19:43:53.718Z,6.50
2022-11-12T19:46:21.349Z,6.50
2022-11-12T19:48:48.418Z,6.40
2022-11-12T19:51:15.572Z,6.20
2022-11-12T19:53:47.037Z,6.20
2022-11-12T19:56:23.016Z,6.10
2022-11-12T19:58:50.483Z,6.00
2022-11-12T20:01:18.778Z,6.10
2022-11-12T20:03:46.343Z,6.00
2022-11-12T20:06:23.564Z,6.00
2022-11-12T20:08:50.591Z,6.00
2022-11-12T20:11:19.014Z,6.10
2022-11-12T20:13:46.462Z,6.10
2022-11-12T20:16:20.771Z,6.10
2022-11-12T20:18:55.695Z,6.10
2022-11-12T20:21:24.177Z,6.10
2022-11-12T20:23:51.170Z,6.00
2022-11-12T20:26:18.317Z,6.00
2022-11-12T20:28:45.451Z,6.00
2022-11-12T20:31:16.064Z,6.00
2022-11-12T20:33:43.234Z,6.00
2022-11-12T20:36:14.246Z,6.00
2022-11-12T20:38:43.401Z,6.00
2022-11-12T20:41:28.697Z,6.10
2022-11-12T20:44:00.630Z,6.10
2022-11-12T20:46:28.340Z,6.10
2022-11-12T20:48:55.590Z,6.10
2022-11-12T20:51:26.744Z,6.00
2022-11-12T20:54:00.012Z,6.00
2022-11-12T20:56:30.359Z,6.00
2022-11-12T20:58:59.476Z,5.90
2022-11-12T21:01:28.936Z,5.80
2022-11-12T21:03:58.135Z,5.70
2022-11-12T21:06:29.546Z,5.60
2022-11-12T21:08:59.901Z,5.50
2022-11-12T21:11:27.170Z,5.40
2022-11-12T21:13:54.290Z,5.30
2022-11-12T21:16:21.508Z,5.20
2022-11-12T21:18:48.526Z,5.10
2022-11-12T21:21:19.319Z,5.10
2022-11-12T21:23:47.522Z,5.10
2022-11-12T21:26:23.469Z,5.00
2022-11-12T21:28:53.929Z,5.00
2022-11-12T21:31:24.276Z,5.00
2022-11-12T21:33:53.449Z,5.00
2022-11-12T21:36:22.134Z,5.10
2022-11-12T21:38:49.796Z,5.20
2022-11-12T21:41:20.700Z,5.20
2022-11-12T21:43:48.426Z,5.20
2022-11-12T21:46:27.921Z,5.20
2022-11-12T21:48:56.751Z,5.20
2022-11-12T21:51:27.233Z,5.30
2022-11-12T21:54:03.666Z,5.30
2022-11-12T21:56:31.511Z,5.40
2022-11-12T21:59:00.734Z,5.40
2022-11-12T22:01:31.047Z,5.40
2022-11-12T22:04:00.750Z,5.40
2022-11-12T22:06:30.828Z,5.30
2022-11-12T22:08:58.635Z,5.10
2022-11-12T22:11:26.849Z,5.10
2022-11-12T22:13:53.942Z,5.00
2022-11-12T22:16:27.227Z,4.90
2022-11-12T22:18:56.335Z,4.80
2022-11-12T22:21:38.426Z,4.80
2022-11-12T22:24:07.603Z,4.70
2022-11-12T22:26:34.720Z,4.70
2022-11-12T22:29:01.817Z,4.80
2022-11-12T22:31:33.612Z,4.80
2022-11-12T22:34:02.262Z,4.90
2022-11-12T22:36:31.601Z,4.90
2022-11-12T22:38:59.164Z,4.90
2022-11-12T22:41:31.557Z,4.70
2022-11-12T22:44:02.820Z,4.80
2022-11-12T22:46:34.090Z,4.80
2022-11-12T22:49:02.544Z,4.80
2022-11-12T22:51:32.448Z,4.80
2022-11-12T22:54:08.848Z,4.70
2022-11-12T22:56:36.896Z,4.60
2022-11-12T22:59:04.929Z,4.60
2022-11-12T23:01:35.399Z,4.60
2022-11-12T23:04:05.807Z,4.60
2022-11-12T23:06:34.790Z,4.60
2022-11-12T23:09:02.449Z,4.60
2022-11-12T23:11:29.726Z,4.70
2022-11-12T23:13:57.069Z,4.70
2022-11-12T23:16:30.108Z,4.50
2022-11-12T23:18:58.702Z,4.50
2022-11-12T23:21:29.769Z,4.50
2022-11-12T23:23:59.924Z,4.40
2022-11-12T23:26:33.564Z,4.50
2022-11-12T23:29:01.949Z,4.40
2022-11-12T23:31:31.334Z,4.40
2022-11-12T23:34:02.761Z,4.40
2022-11-12T23:36:30.617Z,4.40
2022-11-12T23:38:58.712Z,4.50
2022-11-12T23:41:27.563Z,4.50
2022-11-12T23:43:56.867Z,4.40
2022-11-12T23:46:26.132Z,4.50
2022-11-12T23:48:53.180Z,4.50
2022-11-12T23:51:22.206Z,4.50
2022-11-12T23:53:49.754Z,4.50
2022-11-12T23:56:19.069Z,4.50
2022-11-12T23:58:46.808Z,4.40
